sensor_id;sensor_type;location;lat;lon;timestamp;pressure;altitude;pressure_sealevel;temperature;humidity
28626;BME280;18905;42.668;23.364;2023-06-14T00:01:06;94837.97;;;19.93;100.00
28626;BME280;18905;42.668;23.364;2023-06-14T00:03:34;94791.28;;;19.72;100.00
28626;BME280;18905;42.668;23.364;2023-06-14T00:06:00;94796.78;;;19.82;100.00
28626;BME280;18905;42.668;23.364;2023-06-14T00:08:26;94731.38;;;19.13;100.00
28626;BME280;18905;42.668;23.364;2023-06-14T00:10:51;94695.13;;;18.76;100.00
28626;BME280;18905;42.668;23.364;2023-06-14T00:13:18;94719.75;;;18.79;100.00
28626;BME280;18905;42.668;23.364;2023-06-14T00:15:46;94821.03;;;18.86;100.00
28626;BME280;18905;42.668;23.364;2023-06-14T00:18:13;94714.81;;;18.19;100.00
28626;BME280;18905;42.668;23.364;2023-06-14T00:20:39;94725.66;;;17.79;100.00
28626;BME280;18905;42.668;23.364;2023-06-14T00:23:07;94815.56;;;18.50;100.00
28626;BME280;18905;42.668;23.364;2023-06-14T00:25:33;94813.25;;;18.88;100.00
28626;BME280;18905;42.668;23.364;2023-06-14T00:28:02;94754.38;;;18.65;100.00
28626;BME280;18905;42.668;23.364;2023-06-14T00:30:28;94813.66;;;19.30;100.00
28626;BME280;18905;42.668;23.364;2023-06-14T00:32:56;94815.38;;;19.52;100.00
28626;BME280;18905;42.668;23.364;2023-06-14T00:35:23;94644.13;;;18.50;100.00
28626;BME280;18905;42.668;23.364;2023-06-14T00:37:49;94696.06;;;18.50;100.00
28626;BME280;18905;42.668;23.364;2023-06-14T00:40:15;94690.38;;;18.69;100.00
28626;BME280;18905;42.668;23.364;2023-06-14T00:42:42;94814.66;;;19.62;100.00
28626;BME280;18905;42.668;23.364;2023-06-14T00:45:50;94765.97;;;19.35;100.00
28626;BME280;18905;42.668;23.364;2023-06-14T00:48:17;94764.03;;;19.39;100.00
28626;BME280;18905;42.668;23.364;2023-06-14T00:50:43;94650.66;;;18.86;100.00
28626;BME280;18905;42.668;23.364;2023-06-14T00:53:15;94669.97;;;19.10;100.00
28626;BME280;18905;42.668;23.364;2023-06-14T00:55:45;94799.97;;;19.91;100.00
28626;BME280;18905;42.668;23.364;2023-06-14T00:58:11;94702.53;;;19.22;100.00
28626;BME280;18905;42.668;23.364;2023-06-14T01:00:43;94730.81;;;19.40;100.00
28626;BME280;18905;42.668;23.364;2023-06-14T01:03:09;94693.47;;;19.18;100.00
28626;BME280;18905;42.668;23.364;2023-06-14T01:05:38;94661.78;;;19.10;100.00
28626;BME280;18905;42.668;23.364;2023-06-14T01:11:24;94621.66;;;18.78;100.00
28626;BME280;18905;42.668;23.364;2023-06-14T01:13:53;94704.47;;;19.22;100.00
28626;BME280;18905;42.668;23.364;2023-06-14T01:16:23;94798.75;;;19.78;100.00
28626;BME280;18905;42.668;23.364;2023-06-14T01:18:52;94635.78;;;18.83;100.00
28626;BME280;18905;42.668;23.364;2023-06-14T01:21:25;94724.06;;;19.27;100.00
28626;BME280;18905;42.668;23.364;2023-06-14T01:23:54;94636.28;;;18.49;100.00
28626;BME280;18905;42.668;23.364;2023-06-14T01:26:29;94676.28;;;18.67;100.00
28626;BME280;18905;42.668;23.364;2023-06-14T01:29:06;94717.94;;;18.94;100.00
28626;BME280;18905;42.668;23.364;2023-06-14T01:31:33;94660.19;;;18.55;100.00
28626;BME280;18905;42.668;23.364;2023-06-14T01:34:07;94792.28;;;19.50;100.00
28626;BME280;18905;42.668;23.364;2023-06-14T01:36:36;94792.72;;;19.55;100.00
28626;BME280;18905;42.668;23.364;2023-06-14T01:39:08;94714.88;;;19.02;100.00
28626;BME280;18905;42.668;23.364;2023-06-14T01:41:37;94707.41;;;18.99;100.00
28626;BME280;18905;42.668;23.364;2023-06-14T01:44:06;94644.84;;;18.44;100.00
28626;BME280;18905;42.668;23.364;2023-06-14T01:46:32;94635.72;;;17.93;100.00
28626;BME280;18905;42.668;23.364;2023-06-14T01:49:05;94673.69;;;18.05;100.00
28626;BME280;18905;42.668;23.364;2023-06-14T01:52:20;94797.06;;;18.73;100.00
28626;BME280;18905;42.668;23.364;2023-06-14T01:55:08;94626.78;;;17.63;100.00
28626;BME280;18905;42.668;23.364;2023-06-14T01:57:35;94747.34;;;18.64;100.00
28626;BME280;18905;42.668;23.364;2023-06-14T02:00:01;94702.31;;;18.51;100.00
28626;BME280;18905;42.668;23.364;2023-06-14T02:02:31;94709.78;;;18.57;100.00
28626;BME280;18905;42.668;23.364;2023-06-14T02:04:58;94801.16;;;19.33;100.00
28626;BME280;18905;42.668;23.364;2023-06-14T02:07:25;94808.63;;;19.39;100.00
28626;BME280;18905;42.668;23.364;2023-06-14T02:09:54;94691.53;;;18.68;100.00
28626;BME280;18905;42.668;23.364;2023-06-14T02:12:25;94658.69;;;18.25;100.00
28626;BME280;18905;42.668;23.364;2023-06-14T02:14:52;94677.84;;;18.28;100.00
28626;BME280;18905;42.668;23.364;2023-06-14T02:17:19;94818.03;;;19.38;100.00
28626;BME280;18905;42.668;23.364;2023-06-14T02:19:51;94822.41;;;19.46;100.00
28626;BME280;18905;42.668;23.364;2023-06-14T02:22:20;94681.81;;;18.74;100.00
28626;BME280;18905;42.668;23.364;2023-06-14T02:24:48;94721.09;;;18.99;100.00
28626;BME280;18905;42.668;23.364;2023-06-14T02:27:41;94691.97;;;18.77;100.00
28626;BME280;18905;42.668;23.364;2023-06-14T02:30:10;94756.25;;;18.94;100.00
28626;BME280;18905;42.668;23.364;2023-06-14T02:32:48;94756.38;;;19.11;100.00
28626;BME280;18905;42.668;23.364;2023-06-14T02:35:44;94762.16;;;17.93;100.00
28626;BME280;18905;42.668;23.364;2023-06-14T02:38:19;94769.47;;;18.19;100.00
28626;BME280;18905;42.668;23.364;2023-06-14T02:41:01;94826.97;;;18.26;100.00
28626;BME280;18905;42.668;23.364;2023-06-14T02:43:56;94831.59;;;18.51;100.00
28626;BME280;18905;42.668;23.364;2023-06-14T02:46:57;94827.25;;;18.83;100.00
28626;BME280;18905;42.668;23.364;2023-06-14T02:49:28;94686.69;;;17.49;100.00
28626;BME280;18905;42.668;23.364;2023-06-14T02:51:59;94721.16;;;17.60;100.00
28626;BME280;18905;42.668;23.364;2023-06-14T02:54:48;94688.41;;;17.34;100.00
28626;BME280;18905;42.668;23.364;2023-06-14T02:57:23;94797.34;;;18.31;100.00
28626;BME280;18905;42.668;23.364;2023-06-14T02:59:52;94750.47;;;18.29;100.00
28626;BME280;18905;42.668;23.364;2023-06-14T03:02:18;94841.09;;;19.01;100.00
28626;BME280;18905;42.668;23.364;2023-06-14T03:05:11;94752.59;;;18.43;100.00
28626;BME280;18905;42.668;23.364;2023-06-14T03:08:03;94837.03;;;18.48;100.00
28626;BME280;18905;42.668;23.364;2023-06-14T03:10:43;94830.56;;;18.63;100.00
28626;BME280;18905;42.668;23.364;2023-06-14T03:13:31;94730.47;;;18.18;100.00
28626;BME280;18905;42.668;23.364;2023-06-14T03:16:05;94845.53;;;19.12;100.00
28626;BME280;18905;42.668;23.364;2023-06-14T03:18:37;94711.09;;;18.01;100.00
28626;BME280;18905;42.668;23.364;2023-06-14T03:21:04;94845.63;;;18.86;100.00
28626;BME280;18905;42.668;23.364;2023-06-14T03:23:32;94837.59;;;19.00;100.00
28626;BME280;18905;42.668;23.364;2023-06-14T03:26:08;94718.94;;;18.35;100.00
28626;BME280;18905;42.668;23.364;2023-06-14T03:28:42;94851.00;;;19.12;100.00
28626;BME280;18905;42.668;23.364;2023-06-14T03:31:34;94842.66;;;18.98;100.00
28626;BME280;18905;42.668;23.364;2023-06-14T03:34:10;94725.63;;;18.08;100.00
28626;BME280;18905;42.668;23.364;2023-06-14T03:36:35;94793.59;;;18.79;100.00
28626;BME280;18905;42.668;23.364;2023-06-14T03:39:01;94716.66;;;18.81;100.00
28626;BME280;18905;42.668;23.364;2023-06-14T03:41:26;94816.00;;;19.32;100.00
28626;BME280;18905;42.668;23.364;2023-06-14T03:43:52;94733.06;;;19.24;100.00
28626;BME280;18905;42.668;23.364;2023-06-14T03:46:17;94757.16;;;19.62;100.00
28626;BME280;18905;42.668;23.364;2023-06-14T03:48:43;94773.00;;;20.00;100.00
28626;BME280;18905;42.668;23.364;2023-06-14T03:51:08;94853.63;;;20.67;100.00
28626;BME280;18905;42.668;23.364;2023-06-14T03:53:34;94763.59;;;19.98;100.00
28626;BME280;18905;42.668;23.364;2023-06-14T03:56:01;94779.81;;;20.17;100.00
28626;BME280;18905;42.668;23.364;2023-06-14T03:58:26;94692.72;;;19.89;100.00
28626;BME280;18905;42.668;23.364;2023-06-14T04:00:53;94857.31;;;21.10;100.00
28626;BME280;18905;42.668;23.364;2023-06-14T04:03:19;94859.31;;;21.13;100.00
28626;BME280;18905;42.668;23.364;2023-06-14T04:05:45;94817.25;;;20.84;100.00
28626;BME280;18905;42.668;23.364;2023-06-14T04:08:14;94819.44;;;20.33;100.00
28626;BME280;18905;42.668;23.364;2023-06-14T04:10:41;94733.25;;;19.52;100.00
28626;BME280;18905;42.668;23.364;2023-06-14T04:13:06;94699.19;;;18.52;100.00
28626;BME280;18905;42.668;23.364;2023-06-14T04:15:32;94802.91;;;19.58;100.00
28626;BME280;18905;42.668;23.364;2023-06-14T04:17:58;94865.97;;;20.19;100.00
28626;BME280;18905;42.668;23.364;2023-06-14T04:20:24;94761.97;;;19.86;100.00
28626;BME280;18905;42.668;23.364;2023-06-14T04:22:50;94768.56;;;19.71;100.00
28626;BME280;18905;42.668;23.364;2023-06-14T04:25:16;94817.75;;;20.08;100.00
28626;BME280;18905;42.668;23.364;2023-06-14T04:27:42;94861.88;;;20.64;100.00
28626;BME280;18905;42.668;23.364;2023-06-14T04:30:09;94762.09;;;20.04;100.00
28626;BME280;18905;42.668;23.364;2023-06-14T04:32:35;94713.47;;;19.87;100.00
28626;BME280;18905;42.668;23.364;2023-06-14T04:35:08;94856.88;;;20.91;100.00
28626;BME280;18905;42.668;23.364;2023-06-14T04:43:01;94719.97;;;20.40;100.00
28626;BME280;18905;42.668;23.364;2023-06-14T04:48:09;94717.13;;;20.19;100.00
28626;BME280;18905;42.668;23.364;2023-06-14T04:53:11;94773.78;;;21.36;100.00
28626;BME280;18905;42.668;23.364;2023-06-14T04:55:38;94764.38;;;21.47;100.00
28626;BME280;18905;42.668;23.364;2023-06-14T04:58:10;94810.66;;;21.14;100.00
28626;BME280;18905;42.668;23.364;2023-06-14T05:00:44;94864.44;;;21.99;100.00
28626;BME280;18905;42.668;23.364;2023-06-14T05:03:17;94755.66;;;20.75;100.00
28626;BME280;18905;42.668;23.364;2023-06-14T05:05:48;94872.69;;;21.57;100.00
28626;BME280;18905;42.668;23.364;2023-06-14T05:08:16;94865.63;;;21.45;100.00
28626;BME280;18905;42.668;23.364;2023-06-14T05:10:42;94800.38;;;20.72;100.00
28626;BME280;18905;42.668;23.364;2023-06-14T05:13:24;94747.00;;;20.55;100.00
28626;BME280;18905;42.668;23.364;2023-06-14T05:16:03;94734.50;;;20.65;100.00
28626;BME280;18905;42.668;23.364;2023-06-14T05:19:03;94741.53;;;20.62;100.00
28626;BME280;18905;42.668;23.364;2023-06-14T05:25:35;94841.91;;;20.77;100.00
28626;BME280;18905;42.668;23.364;2023-06-14T05:28:00;94846.59;;;20.66;100.00
28626;BME280;18905;42.668;23.364;2023-06-14T05:30:27;94867.03;;;20.83;100.00
28626;BME280;18905;42.668;23.364;2023-06-14T05:33:15;94767.28;;;20.23;100.00
28626;BME280;18905;42.668;23.364;2023-06-14T05:36:27;94895.34;;;21.08;100.00
28626;BME280;18905;42.668;23.364;2023-06-14T06:13:35;94764.16;;;20.28;100.00
28626;BME280;18905;42.668;23.364;2023-06-14T06:19:21;94912.31;;;21.52;100.00
28626;BME280;18905;42.668;23.364;2023-06-14T06:21:47;94915.03;;;21.42;100.00
28626;BME280;18905;42.668;23.364;2023-06-14T06:24:13;94818.06;;;20.96;100.00
28626;BME280;18905;42.668;23.364;2023-06-14T06:26:39;94898.59;;;21.70;100.00
28626;BME280;18905;42.668;23.364;2023-06-14T06:29:05;94918.66;;;21.91;100.00
28626;BME280;18905;42.668;23.364;2023-06-14T06:31:33;94913.53;;;22.04;100.00
28626;BME280;18905;42.668;23.364;2023-06-14T06:33:59;94884.41;;;21.26;100.00
28626;BME280;18905;42.668;23.364;2023-06-14T06:36:25;94786.09;;;20.28;100.00
28626;BME280;18905;42.668;23.364;2023-06-14T06:41:26;94926.41;;;21.37;100.00
28626;BME280;18905;42.668;23.364;2023-06-14T06:43:52;94795.66;;;20.69;100.00
28626;BME280;18905;42.668;23.364;2023-06-14T06:46:18;94886.78;;;21.31;100.00
28626;BME280;18905;42.668;23.364;2023-06-14T06:48:44;94849.09;;;21.14;100.00
28626;BME280;18905;42.668;23.364;2023-06-14T06:51:10;94797.63;;;20.79;100.00
28626;BME280;18905;42.668;23.364;2023-06-14T06:53:38;94851.88;;;21.52;100.00
28626;BME280;18905;42.668;23.364;2023-06-14T06:56:04;94850.25;;;21.16;100.00
28626;BME280;18905;42.668;23.364;2023-06-14T06:58:29;94805.91;;;20.97;100.00
28626;BME280;18905;42.668;23.364;2023-06-14T07:00:55;94816.16;;;21.07;100.00
28626;BME280;18905;42.668;23.364;2023-06-14T07:19:19;94919.81;;;21.76;100.00
28626;BME280;18905;42.668;23.364;2023-06-14T07:21:44;94814.59;;;21.41;100.00
28626;BME280;18905;42.668;23.364;2023-06-14T07:24:10;94797.31;;;21.79;100.00
28626;BME280;18905;42.668;23.364;2023-06-14T07:26:36;94784.00;;;21.42;100.00
28626;BME280;18905;42.668;23.364;2023-06-14T07:34:22;94794.88;;;22.23;100.00
28626;BME280;18905;42.668;23.364;2023-06-14T07:57:30;94800.44;;;23.56;100.00
28626;BME280;18905;42.668;23.364;2023-06-14T07:59:56;94847.00;;;23.91;100.00
28626;BME280;18905;42.668;23.364;2023-06-14T08:02:22;94885.88;;;24.48;100.00
28626;BME280;18905;42.668;23.364;2023-06-14T08:07:29;94890.16;;;24.52;100.00
28626;BME280;18905;42.668;23.364;2023-06-14T08:09:54;94931.38;;;23.78;100.00
28626;BME280;18905;42.668;23.364;2023-06-14T08:14:54;94925.72;;;23.45;100.00
28626;BME280;18905;42.668;23.364;2023-06-14T08:17:23;94809.50;;;22.92;100.00
28626;BME280;18905;42.668;23.364;2023-06-14T08:25:44;94783.59;;;23.47;100.00
28626;BME280;18905;42.668;23.364;2023-06-14T08:28:15;94833.34;;;23.74;100.00
28626;BME280;18905;42.668;23.364;2023-06-14T08:31:16;94941.16;;;24.41;100.00
28626;BME280;18905;42.668;23.364;2023-06-14T08:39:56;94807.44;;;23.68;100.00
28626;BME280;18905;42.668;23.364;2023-06-14T08:42:23;94775.16;;;23.14;100.00
28626;BME280;18905;42.668;23.364;2023-06-14T08:44:49;94872.16;;;24.41;100.00
28626;BME280;18905;42.668;23.364;2023-06-14T08:55:07;94782.13;;;23.76;100.00
28626;BME280;18905;42.668;23.364;2023-06-14T09:20:08;94908.63;;;24.96;95.01
28626;BME280;18905;42.668;23.364;2023-06-14T09:22:39;94787.44;;;24.01;97.96
28626;BME280;18905;42.668;23.364;2023-06-14T09:25:07;94906.50;;;24.77;100.00
28626;BME280;18905;42.668;23.364;2023-06-14T09:38:36;94910.81;;;25.08;99.73
28626;BME280;18905;42.668;23.364;2023-06-14T09:41:03;94765.81;;;23.52;100.00
28626;BME280;18905;42.668;23.364;2023-06-14T09:46:18;94896.66;;;24.35;100.00
28626;BME280;18905;42.668;23.364;2023-06-14T09:48:44;94894.38;;;24.27;100.00
28626;BME280;18905;42.668;23.364;2023-06-14T09:51:13;94815.03;;;24.01;100.00
28626;BME280;18905;42.668;23.364;2023-06-14T09:58:54;94758.78;;;24.25;94.96
28626;BME280;18905;42.668;23.364;2023-06-14T10:01:21;94772.84;;;24.71;92.65
28626;BME280;18905;42.668;23.364;2023-06-14T10:03:49;94749.66;;;24.65;91.41
28626;BME280;18905;42.668;23.364;2023-06-14T10:06:16;94750.66;;;24.78;90.16
28626;BME280;18905;42.668;23.364;2023-06-14T10:08:43;94826.72;;;25.88;89.81
28626;BME280;18905;42.668;23.364;2023-06-14T10:29:19;94767.31;;;24.71;91.41
28626;BME280;18905;42.668;23.364;2023-06-14T10:31:56;94702.19;;;24.13;93.13
28626;BME280;18905;42.668;23.364;2023-06-14T10:42:08;94845.19;;;25.72;90.36
28626;BME280;18905;42.668;23.364;2023-06-14T10:44:49;94854.63;;;25.74;90.12
28626;BME280;18905;42.668;23.364;2023-06-14T10:52:29;94708.19;;;24.95;89.26
28626;BME280;18905;42.668;23.364;2023-06-14T11:11:31;94682.53;;;24.71;88.15
28626;BME280;18905;42.668;23.364;2023-06-14T11:14:01;94684.34;;;24.51;88.14
28626;BME280;18905;42.668;23.364;2023-06-14T11:16:30;94690.84;;;24.38;96.44
28626;BME280;18905;42.668;23.364;2023-06-14T11:19:02;94676.00;;;24.85;90.43
28626;BME280;18905;42.668;23.364;2023-06-14T11:21:28;94732.19;;;25.24;89.26
28626;BME280;18905;42.668;23.364;2023-06-14T11:23:56;94689.56;;;25.25;85.13
28626;BME280;18905;42.668;23.364;2023-06-14T11:29:00;94685.75;;;25.16;84.57
28626;BME280;18905;42.668;23.364;2023-06-14T11:31:28;94641.09;;;24.45;88.33
28626;BME280;18905;42.668;23.364;2023-06-14T11:33:58;94702.53;;;24.79;90.44
28626;BME280;18905;42.668;23.364;2023-06-14T11:36:29;94803.31;;;25.96;86.85
28626;BME280;18905;42.668;23.364;2023-06-14T11:39:03;94653.66;;;24.99;84.91
28626;BME280;18905;42.668;23.364;2023-06-14T11:41:36;94817.34;;;25.82;84.18
28626;BME280;18905;42.668;23.364;2023-06-14T11:44:02;94634.31;;;24.49;85.85
28626;BME280;18905;42.668;23.364;2023-06-14T11:46:28;94719.75;;;25.13;86.68
28626;BME280;18905;42.668;23.364;2023-06-14T11:51:53;94747.91;;;25.31;87.21
28626;BME280;18905;42.668;23.364;2023-06-14T11:54:25;94688.53;;;25.16;89.79
28626;BME280;18905;42.668;23.364;2023-06-14T11:56:53;94641.09;;;24.71;83.33
28626;BME280;18905;42.668;23.364;2023-06-14T11:59:23;94644.03;;;24.61;80.72
28626;BME280;18905;42.668;23.364;2023-06-14T12:02:03;94611.72;;;25.07;82.21
28626;BME280;18905;42.668;23.364;2023-06-14T12:12:24;94598.63;;;25.54;81.84
28626;BME280;18905;42.668;23.364;2023-06-14T12:20:09;94625.13;;;25.32;84.37
28626;BME280;18905;42.668;23.364;2023-06-14T12:22:46;94748.06;;;25.70;85.97
28626;BME280;18905;42.668;23.364;2023-06-14T12:25:26;94749.25;;;25.69;87.29
28626;BME280;18905;42.668;23.364;2023-06-14T12:27:54;94755.06;;;25.74;89.08
28626;BME280;18905;42.668;23.364;2023-06-14T12:30:22;94622.41;;;25.05;86.52
28626;BME280;18905;42.668;23.364;2023-06-14T12:32:53;94690.06;;;25.17;87.79
28626;BME280;18905;42.668;23.364;2023-06-14T12:35:21;94742.22;;;25.64;91.60
28626;BME280;18905;42.668;23.364;2023-06-14T12:37:53;94606.84;;;24.69;87.32
28626;BME280;18905;42.668;23.364;2023-06-14T12:40:19;94700.78;;;25.15;88.16
28626;BME280;18905;42.668;23.364;2023-06-14T12:42:46;94647.16;;;24.86;87.92
28626;BME280;18905;42.668;23.364;2023-06-14T12:45:17;94734.22;;;25.47;88.03
28626;BME280;18905;42.668;23.364;2023-06-14T12:52:57;94595.25;;;24.51;86.73
28626;BME280;18905;42.668;23.364;2023-06-14T12:55:25;94573.41;;;24.37;87.27
28626;BME280;18905;42.668;23.364;2023-06-14T12:57:57;94578.25;;;24.29;88.56
28626;BME280;18905;42.668;23.364;2023-06-14T13:00:25;94585.84;;;24.48;90.15
28626;BME280;18905;42.668;23.364;2023-06-14T13:03:05;94582.16;;;24.32;87.54
28626;BME280;18905;42.668;23.364;2023-06-14T13:13:44;94593.31;;;24.21;95.76
28626;BME280;18905;42.668;23.364;2023-06-14T13:16:14;94674.84;;;24.26;100.00
28626;BME280;18905;42.668;23.364;2023-06-14T13:21:15;94591.84;;;22.69;100.00
28626;BME280;18905;42.668;23.364;2023-06-14T13:26:18;94638.94;;;22.78;100.00
28626;BME280;18905;42.668;23.364;2023-06-14T13:28:45;94623.03;;;21.76;100.00
28626;BME280;18905;42.668;23.364;2023-06-14T13:31:10;94777.28;;;22.92;100.00
28626;BME280;18905;42.668;23.364;2023-06-14T13:36:33;94790.28;;;21.57;100.00
28626;BME280;18905;42.668;23.364;2023-06-14T13:38:58;94785.16;;;21.59;100.00
28626;BME280;18905;42.668;23.364;2023-06-14T13:41:27;94709.84;;;21.32;100.00
28626;BME280;18905;42.668;23.364;2023-06-14T13:43:57;94788.63;;;21.98;100.00
28626;BME280;18905;42.668;23.364;2023-06-14T13:46:33;94685.88;;;21.43;100.00
28626;BME280;18905;42.668;23.364;2023-06-14T13:48:59;94634.16;;;21.27;100.00
28626;BME280;18905;42.668;23.364;2023-06-14T13:51:29;94762.66;;;22.20;100.00
28626;BME280;18905;42.668;23.364;2023-06-14T13:53:55;94750.50;;;22.21;100.00
28626;BME280;18905;42.668;23.364;2023-06-14T13:56:22;94776.75;;;22.46;100.00
28626;BME280;18905;42.668;23.364;2023-06-14T13:58:49;94673.88;;;22.16;100.00
28626;BME280;18905;42.668;23.364;2023-06-14T14:01:18;94728.63;;;22.72;100.00
28626;BME280;18905;42.668;23.364;2023-06-14T14:03:52;94634.69;;;21.98;100.00
28626;BME280;18905;42.668;23.364;2023-06-14T14:06:18;94674.72;;;22.13;100.00
28626;BME280;18905;42.668;23.364;2023-06-14T14:08:44;94677.13;;;21.97;100.00
28626;BME280;18905;42.668;23.364;2023-06-14T14:13:40;94742.25;;;22.21;100.00
28626;BME280;18905;42.668;23.364;2023-06-14T14:16:07;94699.22;;;20.77;100.00
28626;BME280;18905;42.668;23.364;2023-06-14T14:18:33;94726.31;;;21.35;100.00
28626;BME280;18905;42.668;23.364;2023-06-14T14:21:00;94801.25;;;21.81;100.00
28626;BME280;18905;42.668;23.364;2023-06-14T14:23:30;94825.16;;;22.05;100.00
28626;BME280;18905;42.668;23.364;2023-06-14T14:25:57;94771.00;;;21.88;100.00
28626;BME280;18905;42.668;23.364;2023-06-14T14:28:23;94791.03;;;21.82;100.00
28626;BME280;18905;42.668;23.364;2023-06-14T14:30:48;94704.31;;;20.68;100.00
28626;BME280;18905;42.668;23.364;2023-06-14T14:35:59;94778.34;;;20.47;100.00
28626;BME280;18905;42.668;23.364;2023-06-14T14:38:29;94838.78;;;20.72;100.00
28626;BME280;18905;42.668;23.364;2023-06-14T14:40:55;94841.84;;;20.56;100.00
28626;BME280;18905;42.668;23.364;2023-06-14T14:43:20;94715.38;;;19.79;100.00
28626;BME280;18905;42.668;23.364;2023-06-14T14:45:46;94849.72;;;20.61;100.00
28626;BME280;18905;42.668;23.364;2023-06-14T14:48:12;94729.09;;;19.79;100.00
28626;BME280;18905;42.668;23.364;2023-06-14T14:50:38;94854.72;;;20.38;100.00
28626;BME280;18905;42.668;23.364;2023-06-14T14:53:04;94732.44;;;19.48;100.00
28626;BME280;18905;42.668;23.364;2023-06-14T14:55:30;94864.88;;;20.41;100.00
28626;BME280;18905;42.668;23.364;2023-06-14T14:57:57;94793.84;;;20.08;100.00
28626;BME280;18905;42.668;23.364;2023-06-14T15:00:24;94793.56;;;20.31;100.00
28626;BME280;18905;42.668;23.364;2023-06-14T15:02:50;94795.94;;;20.46;100.00
28626;BME280;18905;42.668;23.364;2023-06-14T15:05:16;94858.88;;;21.15;100.00
28626;BME280;18905;42.668;23.364;2023-06-14T15:07:42;94775.69;;;20.75;100.00
28626;BME280;18905;42.668;23.364;2023-06-14T15:10:08;94791.06;;;21.29;100.00
28626;BME280;18905;42.668;23.364;2023-06-14T15:12:34;94845.19;;;22.13;100.00
28626;BME280;18905;42.668;23.364;2023-06-14T15:15:00;94823.97;;;22.10;100.00
28626;BME280;18905;42.668;23.364;2023-06-14T15:17:29;94821.63;;;21.98;100.00
28626;BME280;18905;42.668;23.364;2023-06-14T15:19:55;94836.88;;;22.37;100.00
28626;BME280;18905;42.668;23.364;2023-06-14T15:22:20;94830.94;;;22.39;100.00
28626;BME280;18905;42.668;23.364;2023-06-14T15:24:45;94837.22;;;22.53;100.00
28626;BME280;18905;42.668;23.364;2023-06-14T15:27:12;94823.47;;;22.43;100.00
28626;BME280;18905;42.668;23.364;2023-06-14T15:29:38;94819.16;;;22.42;100.00
28626;BME280;18905;42.668;23.364;2023-06-14T15:32:05;94812.47;;;22.50;100.00
28626;BME280;18905;42.668;23.364;2023-06-14T15:34:31;94795.47;;;22.69;100.00
28626;BME280;18905;42.668;23.364;2023-06-14T15:36:56;94825.94;;;23.06;100.00
28626;BME280;18905;42.668;23.364;2023-06-14T15:39:22;94819.22;;;23.14;100.00
28626;BME280;18905;42.668;23.364;2023-06-14T15:41:49;94835.28;;;23.29;100.00
28626;BME280;18905;42.668;23.364;2023-06-14T15:44:15;94806.97;;;23.25;100.00
28626;BME280;18905;42.668;23.364;2023-06-14T15:46:40;94808.44;;;23.40;100.00
28626;BME280;18905;42.668;23.364;2023-06-14T15:49:09;94827.16;;;23.63;100.00
28626;BME280;18905;42.668;23.364;2023-06-14T15:51:35;94837.44;;;23.55;100.00
28626;BME280;18905;42.668;23.364;2023-06-14T15:54:01;94829.03;;;23.73;100.00
28626;BME280;18905;42.668;23.364;2023-06-14T15:56:26;94841.25;;;23.72;100.00
28626;BME280;18905;42.668;23.364;2023-06-14T15:58:51;94825.34;;;23.39;100.00
28626;BME280;18905;42.668;23.364;2023-06-14T16:01:17;94841.84;;;23.46;100.00
28626;BME280;18905;42.668;23.364;2023-06-14T16:03:42;94832.72;;;23.56;100.00
28626;BME280;18905;42.668;23.364;2023-06-14T16:06:08;94812.81;;;23.34;100.00
28626;BME280;18905;42.668;23.364;2023-06-14T16:08:33;94811.81;;;23.00;100.00
28626;BME280;18905;42.668;23.364;2023-06-14T16:10:59;94810.84;;;22.63;100.00
28626;BME280;18905;42.668;23.364;2023-06-14T16:13:24;94835.84;;;23.00;100.00
28626;BME280;18905;42.668;23.364;2023-06-14T16:15:49;94833.00;;;23.14;100.00
28626;BME280;18905;42.668;23.364;2023-06-14T16:18:15;94829.84;;;23.15;100.00
28626;BME280;18905;42.668;23.364;2023-06-14T16:20:40;94825.44;;;23.32;100.00
28626;BME280;18905;42.668;23.364;2023-06-14T16:23:06;94841.91;;;23.35;100.00
28626;BME280;18905;42.668;23.364;2023-06-14T16:25:31;94837.88;;;23.54;100.00
28626;BME280;18905;42.668;23.364;2023-06-14T16:27:57;94849.25;;;23.56;100.00
28626;BME280;18905;42.668;23.364;2023-06-14T16:30:22;94865.91;;;23.38;100.00
28626;BME280;18905;42.668;23.364;2023-06-14T16:32:48;94863.25;;;23.21;100.00
28626;BME280;18905;42.668;23.364;2023-06-14T16:35:13;94871.50;;;23.28;100.00
28626;BME280;18905;42.668;23.364;2023-06-14T16:37:38;94873.03;;;23.32;100.00
28626;BME280;18905;42.668;23.364;2023-06-14T16:40:04;94869.91;;;23.30;100.00
28626;BME280;18905;42.668;23.364;2023-06-14T16:42:30;94873.78;;;23.40;100.00
28626;BME280;18905;42.668;23.364;2023-06-14T16:44:57;94861.41;;;22.97;100.00
28626;BME280;18905;42.668;23.364;2023-06-14T16:47:23;94854.75;;;22.91;100.00
28626;BME280;18905;42.668;23.364;2023-06-14T16:49:49;94852.78;;;22.91;100.00
28626;BME280;18905;42.668;23.364;2023-06-14T16:52:14;94853.97;;;22.87;100.00
28626;BME280;18905;42.668;23.364;2023-06-14T16:54:40;94864.56;;;22.92;100.00
28626;BME280;18905;42.668;23.364;2023-06-14T16:57:08;94868.59;;;22.77;100.00
28626;BME280;18905;42.668;23.364;2023-06-14T16:59:42;94875.38;;;22.34;100.00
28626;BME280;18905;42.668;23.364;2023-06-14T17:02:09;94877.00;;;21.89;100.00
28626;BME280;18905;42.668;23.364;2023-06-14T17:04:36;94832.63;;;21.42;100.00
28626;BME280;18905;42.668;23.364;2023-06-14T17:07:02;94802.03;;;21.12;100.00
28626;BME280;18905;42.668;23.364;2023-06-14T17:09:29;94849.47;;;21.12;100.00
28626;BME280;18905;42.668;23.364;2023-06-14T17:11:55;94738.19;;;20.01;100.00